Time;durP1;ratioP1;P1;durP2;ratioP2;P2;SDS_P1;SDS_P2;PMS_P1;PMS_P2;Temp;Humidity;BMP_temperature;BMP_pressure;BME280_temperature;BME280_humidity;BME280_pressure;Samples;Min_cycle;Max_cycle;Signal;HPM_P1;HPM_P2
2022/03/14 00:02:21;;;;;;;23.83;10.30;;;;;;;1.26;65.65;98062.00;5094598;28;20524;-38
2022/03/14 00:04:51;;;;;;;29.80;13.70;;;;;;;1.27;65.48;98062.81;5094615;28;20949;-38
2022/03/14 00:07:20;;;;;;;27.97;15.23;;;;;;;1.23;65.65;98055.28;5094237;28;20432;-38
2022/03/14 00:09:47;;;;;;;21.87;10.47;;;;;;;1.20;64.41;98055.53;5094452;28;20531;-38
2022/03/14 00:12:19;;;;;;;19.67;10.27;;;;;;;1.16;64.28;98054.22;5094407;28;20583;-38
2022/03/14 00:14:46;;;;;;;18.93;9.47;;;;;;;1.21;64.15;98067.69;5094087;28;20461;-38
2022/03/14 00:17:15;;;;;;;12.40;6.97;;;;;;;1.20;64.33;98065.19;5094360;28;20547;-38
2022/03/14 00:19:42;;;;;;;12.13;7.67;;;;;;;1.13;63.37;98059.72;5094444;28;20446;-38
2022/03/14 00:22:10;;;;;;;12.47;6.57;;;;;;;1.10;62.88;98064.41;5093990;28;20446;-38
2022/03/14 00:24:38;;;;;;;17.10;6.90;;;;;;;1.09;63.08;98068.84;5094284;28;20450;-38
2022/03/14 00:27:07;;;;;;;15.80;6.50;;;;;;;1.07;62.92;98065.53;5094231;28;20447;-38
2022/03/14 00:29:34;;;;;;;13.43;6.97;;;;;;;1.13;63.04;98070.19;5093911;28;20447;-38
2022/03/14 00:32:01;;;;;;;14.03;7.10;;;;;;;1.06;62.85;98053.44;5094017;28;20824;-39
2022/03/14 00:34:29;;;;;;;18.20;8.50;;;;;;;1.17;63.17;98073.34;5093591;28;20787;-38
2022/03/14 00:36:56;;;;;;;19.50;7.40;;;;;;;1.18;63.50;98070.59;5093690;28;20482;-38
2022/03/14 00:39:23;;;;;;;14.83;7.73;;;;;;;1.21;63.06;98077.31;5093946;28;20440;-38
2022/03/14 00:41:52;;;;;;;12.13;7.10;;;;;;;1.20;62.99;98076.47;5094038;28;20446;-38
2022/03/14 00:44:19;;;;;;;15.03;7.73;;;;;;;1.20;63.73;98073.88;5093685;28;20517;-38
2022/03/14 00:46:47;;;;;;;25.47;12.93;;;;;;;1.05;64.51;98051.78;5094355;28;20482;-38
2022/03/14 00:49:15;;;;;;;24.60;12.60;;;;;;;1.14;65.42;98066.63;5093684;28;20449;-38
2022/03/14 00:51:43;;;;;;;27.13;12.20;;;;;;;1.16;65.88;98077.75;5093568;28;20455;-38
2022/03/14 00:54:10;;;;;;;22.23;11.70;;;;;;;1.14;66.86;98071.84;5093580;28;20443;-38
2022/03/14 00:56:38;;;;;;;33.97;13.77;;;;;;;1.13;67.34;98082.44;5093418;28;20990;-38
2022/03/14 00:59:06;;;;;;;35.47;18.10;;;;;;;1.12;67.48;98073.78;5093810;28;20930;-38
2022/03/14 01:01:34;;;;;;;46.63;21.17;;;;;;;1.10;67.20;98070.50;5093419;28;20504;-39
2022/03/14 01:04:01;;;;;;;37.27;17.90;;;;;;;1.11;66.58;98079.97;5093476;28;20431;-39
2022/03/14 01:06:30;;;;;;;23.40;11.63;;;;;;;1.10;65.85;98078.34;5093817;28;20450;-38
2022/03/14 01:08:57;;;;;;;25.03;13.23;;;;;;;1.11;64.76;98077.34;5093732;28;20443;-38
2022/03/14 01:11:24;;;;;;;20.13;10.23;;;;;;;1.13;64.13;98080.66;5093690;28;20878;-39
2022/03/14 01:13:51;;;;;;;17.10;9.10;;;;;;;1.13;63.89;98080.66;5093343;28;20451;-39
2022/03/14 01:16:20;;;;;;;13.77;6.80;;;;;;;1.15;63.55;98083.94;5093272;28;20926;-38
2022/03/14 01:18:47;;;;;;;11.00;8.20;;;;;;;1.14;63.43;98077.09;5093308;28;20442;-38
2022/03/14 01:21:15;;;;;;;14.23;6.47;;;;;;;1.15;63.04;98089.19;5093339;28;20438;-38
2022/03/14 01:23:42;;;;;;;13.73;6.80;;;;;;;1.16;62.62;98084.75;5093497;28;20458;-38
2022/03/14 01:26:09;;;;;;;13.27;7.10;;;;;;;1.16;62.77;98090.84;5093304;28;20514;-38
2022/03/14 01:28:36;;;;;;;17.10;8.13;;;;;;;1.16;61.86;98085.63;5093301;28;20447;-38
2022/03/14 01:31:04;;;;;;;7.50;6.33;;;;;;;1.14;61.54;98082.31;5093562;28;20638;-38
2022/03/14 01:33:32;;;;;;;17.47;8.40;;;;;;;1.14;61.70;98087.56;5093184;28;20525;-38
2022/03/14 01:36:00;;;;;;;13.63;6.97;;;;;;;1.14;62.40;98087.56;5093524;28;20439;-38
2022/03/14 01:38:27;;;;;;;12.57;6.20;;;;;;;1.15;63.13;98093.59;5093362;28;20491;-38
2022/03/14 01:40:55;;;;;;;9.50;5.63;;;;;;;0.90;63.46;98058.47;5093154;28;20447;-40
2022/03/14 01:43:26;;;;;;;11.47;4.70;;;;;;;1.12;62.89;98097.34;5093084;28;20808;-39
2022/03/14 01:45:57;;;;;;;8.00;5.60;;;;;;;1.03;62.71;98090.34;5095552;28;20470;-38
2022/03/14 01:48:24;;;;;;;9.97;6.03;;;;;;;1.05;62.27;98103.28;5097312;28;20436;-38
2022/03/14 01:50:54;;;;;;;5.63;4.17;;;;;;;1.04;62.23;98102.47;5097230;28;20439;-39
2022/03/14 01:53:22;;;;;;;10.80;5.93;;;;;;;1.06;62.79;98110.97;5096763;28;20447;-38
2022/03/14 01:55:50;;;;;;;15.57;5.20;;;;;;;1.04;62.97;98107.69;5096724;28;20927;-39
2022/03/14 01:58:17;;;;;;;13.80;5.13;;;;;;;1.00;63.15;98111.56;5096679;28;20486;-39
2022/03/14 02:00:45;;;;;;;7.90;4.80;;;;;;;1.01;63.35;98114.03;5096627;28;20443;-38
2022/03/14 02:03:12;;;;;;;51.00;18.90;;;;;;;1.03;64.36;98116.47;5096665;28;20447;-38
2022/03/14 02:05:40;;;;;;;68.90;23.20;;;;;;;0.97;65.21;98111.84;5096587;28;20450;-39
2022/03/14 02:08:09;;;;;;;136.60;46.43;;;;;;;0.97;65.64;98115.28;5096574;28;20500;-39
2022/03/14 02:10:36;;;;;;;188.17;64.00;;;;;;;0.97;65.78;98120.50;5096850;28;20852;-39
2022/03/14 02:13:07;;;;;;;55.10;22.00;;;;;;;0.92;66.52;98116.66;5096758;28;20474;-38
2022/03/14 02:15:34;;;;;;;44.77;19.07;;;;;;;0.96;66.31;98128.50;5096754;28;20465;-40
2022/03/14 02:18:02;;;;;;;39.17;20.53;;;;;;;0.96;66.74;98125.88;5096583;28;20486;-38
2022/03/14 02:20:30;;;;;;;31.10;17.00;;;;;;;0.95;66.84;98125.06;5096303;28;20441;-38
2022/03/14 02:22:58;;;;;;;65.03;21.50;;;;;;;0.96;66.52;98128.50;5096176;28;20443;-39
2022/03/14 02:25:25;;;;;;;39.90;17.53;;;;;;;0.93;67.01;98127.00;5096174;28;20438;-38
2022/03/14 02:27:52;;;;;;;36.57;15.87;;;;;;;0.96;67.13;98128.50;5096488;28;20792;-38
2022/03/14 02:30:22;;;;;;;26.73;13.10;;;;;;;0.96;67.17;98133.72;5096478;28;20484;-39
2022/03/14 02:32:50;;;;;;;31.57;13.40;;;;;;;0.97;67.20;98138.00;5096122;28;20447;-38
2022/03/14 02:35:17;;;;;;;27.23;13.30;;;;;;;0.96;67.43;98142.38;5096046;28;20443;-40
2022/03/14 02:37:46;;;;;;;20.27;12.00;;;;;;;0.97;67.59;98138.00;5096249;28;20553;-38
2022/03/14 02:40:14;;;;;;;30.67;12.53;;;;;;;0.98;67.78;98139.63;5096154;28;20439;-38
2022/03/14 02:42:41;;;;;;;28.07;11.67;;;;;;;0.97;67.37;98144.06;5096187;28;20830;-40
2022/03/14 02:45:10;;;;;;;19.27;12.13;;;;;;;0.97;66.92;98138.00;5095948;28;20447;-39
2022/03/14 02:47:38;;;;;;;19.10;10.90;;;;;;;0.99;66.72;98141.28;5096171;28;20434;-38
2022/03/14 02:50:06;;;;;;;24.53;9.30;;;;;;;0.96;67.25;98142.38;5095752;28;20443;-39
2022/03/14 02:52:33;;;;;;;19.73;9.87;;;;;;;0.93;66.66;98137.47;5095712;28;20439;-38
2022/03/14 02:55:02;;;;;;;22.47;9.90;;;;;;;0.97;66.94;98153.69;5096007;28;20927;-38
2022/03/14 02:57:31;;;;;;;19.00;9.07;;;;;;;0.95;66.95;98148.59;5095101;28;20487;-38
2022/03/14 02:59:58;;;;;;;21.50;10.23;;;;;;;0.94;67.60;98152.16;5095886;28;20443;-38
2022/03/14 03:02:25;;;;;;;23.13;11.17;;;;;;;0.94;68.10;98164.44;5095549;28;20442;-39
2022/03/14 03:04:53;;;;;;;12.00;6.63;;;;;;;0.89;68.44;98156.19;5095793;28;20465;-39
2022/03/14 03:07:21;;;;;;;21.80;10.83;;;;;;;0.74;69.28;98174.94;5095786;28;20442;-38
2022/03/14 03:09:49;;;;;;;25.00;11.80;;;;;;;0.63;69.76;98166.44;5095513;28;20450;-38
2022/03/14 03:12:19;;;;;;;28.30;12.50;;;;;;;0.59;70.25;98173.72;5095640;28;20443;-38
2022/03/14 03:14:47;;;;;;;27.07;13.53;;;;;;;0.60;70.38;98172.75;5095308;28;20431;-38
2022/03/14 03:17:15;;;;;;;37.23;14.63;;;;;;;0.51;70.21;98169.16;5095140;28;20439;-40
2022/03/14 03:19:42;;;;;;;41.03;16.47;;;;;;;0.58;70.70;98179.91;5095483;28;20443;-38
2022/03/14 03:22:10;;;;;;;56.60;22.13;;;;;;;0.55;70.49;98190.63;5095149;28;20802;-39
2022/03/14 03:24:37;;;;;;;32.17;15.10;;;;;;;0.51;70.86;98184.03;5095070;28;20478;-38
2022/03/14 03:27:04;;;;;;;27.57;12.80;;;;;;;0.50;70.60;98185.84;5095369;28;20469;-38
2022/03/14 03:29:33;;;;;;;17.67;10.40;;;;;;;0.49;70.74;98181.56;5095370;28;20775;-38
2022/03/14 03:32:00;;;;;;;23.23;10.30;;;;;;;0.53;70.72;98192.56;5094899;28;20444;-38
2022/03/14 03:34:28;;;;;;;21.37;10.57;;;;;;;0.58;70.51;98195.56;5095160;28;20466;-38
2022/03/14 03:36:55;;;;;;;18.13;10.17;;;;;;;0.62;70.60;98207.41;5095628;28;20782;-39
2022/03/14 03:39:23;;;;;;;21.43;11.53;;;;;;;0.65;71.04;98209.75;5094919;28;20483;-38
2022/03/14 03:41:50;;;;;;;15.20;8.63;;;;;;;0.68;70.61;98209.47;5094790;28;20478;-38
2022/03/14 03:44:17;;;;;;;15.27;9.77;;;;;;;0.69;70.17;98211.13;5094697;28;20803;-38
2022/03/14 03:46:46;;;;;;;37.67;9.90;;;;;;;0.72;70.15;98212.63;5094716;28;20474;-38
2022/03/14 03:49:13;;;;;;;11.10;7.20;;;;;;;0.71;70.10;98217.06;5094958;28;20451;-40
2022/03/14 03:51:40;;;;;;;13.60;8.50;;;;;;;0.72;70.40;98226.53;5095107;28;20521;-40
2022/03/14 03:54:08;;;;;;;19.83;9.60;;;;;;;0.62;69.60;98207.41;5094532;28;20448;-38
2022/03/14 03:56:38;;;;;;;24.80;9.57;;;;;;;0.73;69.58;98228.19;5094475;28;20926;-38
2022/03/14 03:59:05;;;;;;;38.67;14.77;;;;;;;0.73;69.84;98225.59;5094365;28;20486;-39
2022/03/14 04:01:33;;;;;;;20.87;10.73;;;;;;;0.72;70.48;98229.16;5094386;28;20442;-38
2022/03/14 04:04:01;;;;;;;26.60;12.27;;;;;;;0.71;70.77;98231.88;5094342;28;20446;-38
2022/03/14 04:06:30;;;;;;;22.33;12.20;;;;;;;0.69;70.63;98234.66;5094686;28;20471;-39
2022/03/14 04:09:00;;;;;;;26.90;14.40;;;;;;;0.69;71.02;98234.66;5093551;28;20455;-38
2022/03/14 04:11:28;;;;;;;23.93;14.67;;;;;;;0.57;70.68;98225.31;5094326;28;20446;-40
2022/03/14 04:13:58;;;;;;;31.30;15.03;;;;;;;0.68;71.31;98238.22;5094684;28;20450;-39
2022/03/14 04:16:26;;;;;;;23.67;14.60;;;;;;;0.67;71.65;98241.81;5094569;28;20430;-38
2022/03/14 04:18:53;;;;;;;34.40;19.27;;;;;;;0.67;72.06;98249.66;5094308;28;20491;-39
2022/03/14 04:21:23;;;;;;;37.07;18.60;;;;;;;0.65;71.59;98243.75;5094441;28;20560;-39
2022/03/14 04:23:50;;;;;;;46.30;22.33;;;;;;;0.66;71.21;98244.56;5094010;28;20923;-39
2022/03/14 04:26:18;;;;;;;40.63;18.90;;;;;;;0.65;71.63;98254.19;5094102;28;20453;-38
2022/03/14 04:28:45;;;;;;;47.37;22.30;;;;;;;0.66;71.47;98257.63;5094275;28;20442;-38
2022/03/14 04:31:12;;;;;;;42.70;20.40;;;;;;;0.65;71.74;98263.84;5093844;28;20439;-39
2022/03/14 04:33:39;;;;;;;47.00;21.57;;;;;;;0.65;71.90;98264.66;5093844;28;20530;-38
2022/03/14 04:36:07;;;;;;;39.93;19.30;;;;;;;0.66;71.47;98263.69;5093826;28;20438;-38
2022/03/14 04:38:36;;;;;;;57.77;23.50;;;;;;;0.67;71.07;98260.13;5094128;28;20486;-38
2022/03/14 04:41:03;;;;;;;53.10;24.73;;;;;;;0.68;71.47;98269.59;5093688;28;20806;-38
2022/03/14 04:43:30;;;;;;;60.87;27.10;;;;;;;0.66;71.61;98255.84;5093713;28;20443;-38
2022/03/14 04:45:57;;;;;;;64.00;27.17;;;;;;;0.67;71.17;98273.19;5093581;28;20467;-39
2022/03/14 04:48:25;;;;;;;48.00;22.57;;;;;;;0.70;70.66;98264.25;5093945;28;20470;-38
2022/03/14 04:50:52;;;;;;;59.77;23.80;;;;;;;0.72;70.38;98268.38;5093644;28;20447;-38
2022/03/14 04:53:19;;;;;;;48.03;22.97;;;;;;;0.73;70.37;98272.66;5093540;28;20439;-39
2022/03/14 04:55:48;;;;;;;92.10;38.10;;;;;;;0.73;70.78;98285.72;5093594;28;20435;-38
2022/03/14 04:58:15;;;;;;;101.07;41.87;;;;;;;0.72;71.58;98276.22;5086047;28;20969;-39
2022/03/14 05:00:43;;;;;;;134.90;53.10;;;;;;;0.73;71.79;98279.63;5078421;28;20448;-37
2022/03/14 05:03:11;;;;;;;158.27;57.47;;;;;;;0.72;71.53;98286.66;5073216;28;20448;-38
2022/03/14 05:05:38;;;;;;;114.03;48.77;;;;;;;0.73;71.76;98285.72;5073158;28;20451;-38
2022/03/14 05:08:07;;;;;;;106.70;42.17;;;;;;;0.74;71.73;98295.19;5073572;28;20448;-38
2022/03/14 05:10:34;;;;;;;54.33;27.70;;;;;;;0.75;71.64;98290.78;5073168;28;20446;-38
2022/03/14 05:13:03;;;;;;;40.23;20.27;;;;;;;0.76;70.74;98298.50;5073145;28;20527;-38
2022/03/14 05:15:33;;;;;;;38.70;19.03;;;;;;;0.76;70.19;98298.50;5073387;28;20439;-38
2022/03/14 05:18:01;;;;;;;32.60;15.00;;;;;;;0.78;69.51;98307.03;5073258;28;20491;-39
2022/03/14 05:20:28;;;;;;;22.47;13.13;;;;;;;0.66;68.21;98289.81;5076325;28;20442;-38
2022/03/14 05:22:55;;;;;;;26.90;9.47;;;;;;;0.74;67.17;98310.88;5077048;28;20435;-39
2022/03/14 05:25:23;;;;;;;30.23;15.90;;;;;;;0.73;67.48;98316.25;5077163;28;20440;-39
2022/03/14 05:27:52;;;;;;;36.63;22.60;;;;;;;0.73;68.84;98318.84;5077242;28;20806;-40
2022/03/14 05:30:21;;;;;;;34.40;17.40;;;;;;;0.75;68.74;98316.94;5077274;28;20469;-38
2022/03/14 05:32:48;;;;;;;38.60;18.50;;;;;;;0.74;68.78;98318.72;5077399;28;20447;-38
2022/03/14 05:35:16;;;;;;;43.27;18.53;;;;;;;0.76;68.69;98319.41;5076843;28;20440;-39
2022/03/14 05:37:44;;;;;;;61.50;30.40;;;;;;;0.79;68.89;98329.59;5076719;28;20924;-38
2022/03/14 05:40:15;;;;;;;25.73;13.47;;;;;;;0.85;69.73;98337.88;5076902;28;20443;-39
2022/03/14 05:42:43;;;;;;;23.27;10.80;;;;;;;0.89;70.05;98323.56;5077471;28;20515;-40
2022/03/14 05:45:11;;;;;;;21.57;13.33;;;;;;;0.95;69.72;98323.00;5076715;28;20521;-38
2022/03/14 05:47:39;;;;;;;24.40;14.60;;;;;;;1.00;69.51;98332.09;5083557;28;20457;-39
2022/03/14 05:50:08;;;;;;;40.90;21.57;;;;;;;0.90;69.33;98310.31;5096947;28;20458;-39
2022/03/14 05:52:36;;;;;;;40.17;22.00;;;;;;;1.11;69.69;98338.97;5097109;28;20443;-39
2022/03/14 05:55:03;;;;;;;45.00;24.97;;;;;;;1.16;69.31;98342.00;5096801;28;20458;-39
2022/03/14 05:57:30;;;;;;;98.20;27.67;;;;;;;1.20;69.17;98353.00;5096665;28;20930;-40
2022/03/14 05:59:57;;;;;;;49.50;27.10;;;;;;;1.23;69.24;98344.88;5096709;28;20490;-39
2022/03/14 06:02:26;;;;;;;65.17;32.90;;;;;;;1.28;69.75;98354.94;5096567;28;20443;-39
2022/03/14 06:04:55;;;;;;;52.47;30.77;;;;;;;1.34;69.39;98364.84;5096339;28;21148;-39
2022/03/14 06:07:23;;;;;;;49.43;23.73;;;;;;;1.38;68.12;98361.81;5096580;28;20451;-40
2022/03/14 06:09:50;;;;;;;53.67;25.97;;;;;;;1.49;67.68;98367.88;5096466;28;20442;-39
2022/03/14 06:12:24;;;;;;;60.70;29.03;;;;;;;1.58;67.01;98372.25;5096736;28;20435;-40
2022/03/14 06:14:53;;;;;;;41.57;25.13;;;;;;;1.69;66.22;98368.66;5096385;28;20835;-39
2022/03/14 06:17:21;;;;;;;51.77;24.80;;;;;;;1.76;66.00;98367.91;5096484;28;20922;-40
2022/03/14 06:19:48;;;;;;;47.50;24.17;;;;;;;1.81;65.90;98372.75;5096355;28;20978;-39
2022/03/14 06:22:17;;;;;;;50.97;27.47;;;;;;;1.93;65.33;98371.59;5096558;28;20804;-39
2022/03/14 06:24:47;;;;;;;38.17;22.20;;;;;;;2.09;64.06;98376.25;5096262;28;20449;-40
2022/03/14 06:27:15;;;;;;;39.53;21.80;;;;;;;2.20;63.04;98378.69;5096480;28;20535;-38
2022/03/14 06:29:42;;;;;;;29.30;16.17;;;;;;;2.33;61.49;98378.34;5096478;28;20471;-39
2022/03/14 06:32:10;;;;;;;35.27;18.10;;;;;;;2.44;60.13;98382.56;5095245;28;20442;-39
2022/03/14 06:34:37;;;;;;;23.40;13.90;;;;;;;2.56;59.30;98396.31;5096013;28;20950;-40
2022/03/14 06:37:07;;;;;;;32.50;16.50;;;;;;;2.70;58.05;98400.25;5095915;28;20973;-39
2022/03/14 06:39:36;;;;;;;31.73;15.70;;;;;;;2.84;58.20;98400.56;5097078;28;20874;-40
2022/03/14 06:42:08;;;;;;;17.23;10.03;;;;;;;3.01;57.26;98398.09;5095822;28;20443;-39
2022/03/14 06:44:38;;;;;;;16.10;8.23;;;;;;;3.06;55.94;98409.00;5096015;28;20428;-38
2022/03/14 06:47:07;;;;;;;17.73;10.03;;;;;;;3.22;55.38;98400.44;5095717;28;20986;-38
2022/03/14 06:49:35;;;;;;;10.97;8.10;;;;;;;3.37;54.17;98403.38;5095754;28;20461;-38
2022/03/14 06:52:02;;;;;;;20.10;9.27;;;;;;;3.54;54.71;98399.88;5095960;28;20508;-38
2022/03/14 06:54:30;;;;;;;22.23;10.00;;;;;;;3.73;54.80;98408.56;5095683;28;20439;-39
2022/03/14 06:56:58;;;;;;;13.60;9.43;;;;;;;3.87;54.83;98410.63;5095912;28;20438;-38
2022/03/14 06:59:25;;;;;;;13.50;9.30;;;;;;;3.97;54.03;98415.81;5095794;28;20905;-39
2022/03/14 07:01:53;;;;;;;18.73;12.10;;;;;;;4.01;53.48;98415.34;5095577;28;20478;-38
2022/03/14 07:04:20;;;;;;;18.40;11.10;;;;;;;3.95;53.55;98423.81;5095724;28;20769;-39
2022/03/14 07:06:47;;;;;;;22.33;11.20;;;;;;;3.88;53.92;98428.06;5095513;28;20439;-38
2022/03/14 07:09:15;;;;;;;27.57;16.43;;;;;;;3.80;52.84;98426.19;5095325;28;20435;-39
2022/03/14 07:11:42;;;;;;;33.17;19.17;;;;;;;3.72;53.03;98427.94;5095226;28;20530;-38
2022/03/14 07:14:11;;;;;;;23.80;12.00;;;;;;;3.68;53.98;98433.50;5095229;28;20945;-38
2022/03/14 07:16:38;;;;;;;17.63;9.90;;;;;;;3.71;53.68;98431.56;5095228;28;20949;-38
2022/03/14 07:19:05;;;;;;;16.63;8.03;;;;;;;3.69;53.75;98424.63;5095466;28;20486;-38
2022/03/14 07:21:34;;;;;;;12.57;7.57;;;;;;;3.82;53.77;98428.66;5095115;28;20450;-38
2022/03/14 07:24:01;;;;;;;17.27;9.83;;;;;;;3.81;53.78;98433.09;5095010;28;20522;-38
2022/03/14 07:26:28;;;;;;;18.00;9.40;;;;;;;3.86;54.17;98436.09;5094885;28;20457;-38
2022/03/14 07:28:55;;;;;;;12.73;6.90;;;;;;;4.04;53.67;98438.69;5093655;28;20829;-38
2022/03/14 07:31:24;;;;;;;17.20;9.13;;;;;;;4.28;54.12;98439.78;5094316;28;20939;-38
2022/03/14 07:33:52;;;;;;;17.00;9.90;;;;;;;4.36;54.01;98439.03;5095235;28;20469;-37
2022/03/14 07:36:20;;;;;;;23.87;13.27;;;;;;;4.38;53.73;98447.59;5095204;28;20538;-38
2022/03/14 07:38:47;;;;;;;12.20;8.50;;;;;;;4.49;53.71;98442.88;5095071;28;20869;-38
2022/03/14 07:41:15;;;;;;;13.83;10.17;;;;;;;4.67;52.50;98449.88;5087249;28;20462;-39
2022/03/14 07:43:42;;;;;;;22.80;10.10;;;;;;;4.80;51.61;98434.47;5077792;28;20444;-39
2022/03/14 07:46:09;;;;;;;12.23;6.40;;;;;;;5.01;51.70;98443.72;5074322;28;20510;-38
2022/03/14 07:48:38;;;;;;;14.90;9.37;;;;;;;5.12;51.56;98449.53;5074310;28;20448;-38
2022/03/14 07:51:08;;;;;;;14.37;9.50;;;;;;;5.24;50.60;98439.50;5074361;28;20932;-38
2022/03/14 07:53:35;;;;;;;19.40;10.37;;;;;;;5.46;50.14;98455.66;5074135;28;20497;-38
2022/03/14 07:56:02;;;;;;;13.70;8.03;;;;;;;5.65;50.14;98459.78;5074195;28;20450;-38
2022/03/14 07:58:30;;;;;;;15.97;10.73;;;;;;;5.68;50.20;98452.41;5073981;28;20450;-39
2022/03/14 08:00:57;;;;;;;13.20;9.27;;;;;;;5.93;50.56;98450.56;5074384;28;20919;-39
2022/03/14 08:03:24;;;;;;;16.07;8.20;;;;;;;6.02;50.26;98451.41;5073988;28;20445;-38
2022/03/14 08:05:58;;;;;;;12.00;7.43;;;;;;;6.07;50.46;98448.28;5074076;28;20451;-39
2022/03/14 08:08:26;;;;;;;9.80;8.23;;;;;;;6.20;50.13;98424.03;5073966;28;20928;-38
2022/03/14 08:10:53;;;;;;;18.20;9.37;;;;;;;6.35;47.49;98435.53;5074426;28;20444;-39
2022/03/14 08:13:20;;;;;;;11.60;8.30;;;;;;;6.56;47.85;98449.00;5074009;28;20998;-38
2022/03/14 08:15:48;;;;;;;18.20;8.80;;;;;;;6.53;47.35;98444.03;5073756;28;20872;-39
2022/03/14 08:18:15;;;;;;;13.40;7.63;;;;;;;6.66;47.44;98454.06;5073774;28;20448;-38
2022/03/14 08:20:42;;;;;;;11.10;7.63;;;;;;;6.80;46.82;98460.47;5073944;28;20868;-39
2022/03/14 08:23:11;;;;;;;12.67;7.17;;;;;;;6.78;46.83;98451.88;5073729;28;20443;-38
2022/03/14 08:25:39;;;;;;;10.70;7.40;;;;;;;6.81;46.17;98454.16;5073945;28;20451;-39
2022/03/14 08:28:06;;;;;;;14.67;7.57;;;;;;;6.62;45.04;98460.66;5073844;28;20614;-38
2022/03/14 08:30:34;;;;;;;12.37;7.23;;;;;;;6.66;45.01;98455.88;5073542;28;20447;-38
2022/03/14 08:33:01;;;;;;;16.43;9.10;;;;;;;6.51;44.34;98456.56;5073431;28;20480;-38
2022/03/14 08:35:29;;;;;;;13.23;7.10;;;;;;;6.60;45.99;98459.19;5073965;28;20443;-38
2022/03/14 08:37:56;;;;;;;12.33;7.03;;;;;;;6.86;43.58;98462.41;5073596;28;20931;-38
2022/03/14 08:40:28;;;;;;;12.07;6.30;;;;;;;6.86;42.85;98453.66;5073388;28;20487;-38
2022/03/14 08:42:56;;;;;;;11.80;7.20;;;;;;;6.96;41.33;98454.28;5073839;28;20840;-38
2022/03/14 08:45:25;;;;;;;11.50;5.13;;;;;;;7.21;39.90;98448.88;5073510;28;20475;-38
2022/03/14 08:47:54;;;;;;;12.27;6.27;;;;;;;7.61;41.49;98450.41;5073551;28;20431;-38
2022/03/14 08:50:21;;;;;;;12.83;8.53;;;;;;;8.00;41.42;98446.75;5073309;28;20486;-38
2022/03/14 08:52:48;;;;;;;19.67;12.63;;;;;;;7.69;37.76;98454.81;5073376;28;20452;-39
2022/03/14 08:55:16;;;;;;;13.90;6.17;;;;;;;7.63;37.99;98435.19;5072895;28;20440;-38
2022/03/14 08:57:45;;;;;;;6.90;5.73;;;;;;;7.94;37.89;98458.09;5073339;28;20931;-38
2022/03/14 09:00:13;;;;;;;12.77;7.43;;;;;;;7.70;38.37;98454.66;5073240;28;20491;-38
2022/03/14 09:02:41;;;;;;;22.00;7.97;;;;;;;7.03;40.64;98459.69;5073158;28;20443;-38
2022/03/14 09:05:09;;;;;;;12.80;8.70;;;;;;;6.88;40.32;98459.59;5073272;28;20530;-38
2022/03/14 09:07:36;;;;;;;14.93;6.73;;;;;;;7.25;40.60;98452.78;5073117;28;20451;-38
2022/03/14 09:10:05;;;;;;;12.03;6.10;;;;;;;7.73;43.46;98442.88;5073261;28;20451;-38
2022/03/14 09:12:34;;;;;;;11.83;6.33;;;;;;;7.91;40.53;98448.66;5073340;28;20877;-38
2022/03/14 09:15:03;;;;;;;11.70;6.40;;;;;;;7.62;41.35;98451.25;5073089;28;20501;-38
2022/03/14 09:17:32;;;;;;;17.50;6.63;;;;;;;7.48;42.38;98436.94;5073486;28;20775;-38
2022/03/14 09:20:00;;;;;;;50.13;19.60;;;;;;;7.31;41.96;98442.38;5073142;28;20519;-38
2022/03/14 09:22:27;;;;;;;15.20;10.23;;;;;;;7.58;42.28;98451.56;5073038;28;20986;-38
2022/03/14 09:24:55;;;;;;;14.47;8.00;;;;;;;7.66;43.24;98450.69;5073322;28;20451;-38
2022/03/14 09:27:23;;;;;;;8.17;6.13;;;;;;;7.62;40.96;98457.34;5073034;28;20439;-38
2022/03/14 09:29:51;;;;;;;14.07;6.67;;;;;;;7.66;41.36;98450.69;5073295;28;20535;-38
2022/03/14 09:32:20;;;;;;;11.30;7.20;;;;;;;7.92;41.56;98460.09;5073245;28;20517;-38
2022/03/14 09:34:47;;;;;;;13.50;6.80;;;;;;;8.08;40.79;98438.75;5072977;28;20451;-39
2022/03/14 09:37:15;;;;;;;7.40;6.47;;;;;;;7.93;39.92;98451.94;5073197;28;20939;-38
2022/03/14 09:39:42;;;;;;;7.30;6.20;;;;;;;8.00;40.50;98458.19;5073266;28;20821;-39
2022/03/14 09:42:12;;;;;;;16.10;8.70;;;;;;;8.18;41.78;98446.44;5072948;28;20446;-38
2022/03/14 09:44:42;;;;;;;7.63;6.50;;;;;;;8.59;42.60;98462.75;5072813;28;20840;-38
2022/03/14 09:47:11;;;;;;;12.43;7.80;;;;;;;8.67;40.86;98458.34;5072712;28;20471;-38
2022/03/14 09:49:44;;;;;;;11.13;6.77;;;;;;;8.78;39.58;98465.84;5072743;28;20448;-38
2022/03/14 09:52:12;;;;;;;12.23;6.97;;;;;;;8.59;38.71;98457.44;5072804;28;20439;-38
2022/03/14 09:54:40;;;;;;;15.00;8.60;;;;;;;8.27;39.10;98468.34;5073007;28;20541;-38
2022/03/14 09:57:07;;;;;;;15.03;7.60;;;;;;;8.00;39.62;98462.63;5073044;28;20443;-38
2022/03/14 09:59:36;;;;;;;12.20;7.50;;;;;;;7.74;40.67;98463.03;5072830;28;20483;-38
2022/03/14 10:02:04;;;;;;;13.07;8.37;;;;;;;7.43;39.89;98465.75;5072779;28;20539;-38
2022/03/14 10:04:31;;;;;;;18.03;7.87;;;;;;;7.38;39.86;98461.78;5072559;28;20450;-38
2022/03/14 10:07:00;;;;;;;10.93;7.83;;;;;;;7.46;39.62;98455.63;5074812;28;20444;-38
2022/03/14 10:09:27;;;;;;;17.57;9.33;;;;;;;7.23;41.14;98460.06;5076187;28;20452;-38
2022/03/14 10:11:57;;;;;;;12.87;6.57;;;;;;;7.24;40.33;98456.44;5076517;28;20488;-38
2022/03/14 10:14:24;;;;;;;10.07;6.50;;;;;;;7.06;41.66;98456.72;5076445;28;20502;-38
2022/03/14 10:16:54;;;;;;;15.73;6.80;;;;;;;6.82;40.66;98437.34;5076189;28;20447;-39
2022/03/14 10:19:22;;;;;;;15.07;8.30;;;;;;;6.88;40.72;98460.44;5076769;28;20471;-39
2022/03/14 10:21:51;;;;;;;19.60;7.00;;;;;;;7.04;40.16;98454.22;5076304;28;20444;-38
2022/03/14 10:24:22;;;;;;;18.00;8.50;;;;;;;6.90;39.64;98455.78;5075919;28;20974;-38
2022/03/14 10:26:50;;;;;;;8.17;6.80;;;;;;;6.70;39.85;98459.81;5076045;28;20431;-39
2022/03/14 10:29:25;;;;;;;13.33;8.50;;;;;;;6.74;41.64;98458.50;5076102;28;20789;-39
2022/03/14 10:31:56;;;;;;;14.00;9.67;;;;;;;6.84;40.72;98453.84;5075830;28;20467;-39
2022/03/14 10:34:24;;;;;;;11.53;8.87;;;;;;;6.88;39.39;98465.72;5076078;28;20481;-38
2022/03/14 10:36:53;;;;;;;10.47;5.70;;;;;;;6.82;39.27;98455.81;5075422;28;20458;-39
2022/03/14 10:39:25;;;;;;;13.07;6.90;;;;;;;6.88;40.41;98460.44;5075989;28;20447;-38
2022/03/14 10:42:05;;;;;;;28.77;15.37;;;;;;;7.07;41.74;98458.34;5076050;28;20841;-38
2022/03/14 10:44:33;;;;;;;14.23;9.50;;;;;;;7.24;40.47;98457.25;5076104;28;20439;-38
2022/03/14 10:47:01;;;;;;;13.37;7.93;;;;;;;7.38;39.88;98461.78;5075401;28;20476;-38
2022/03/14 10:49:29;;;;;;;9.27;6.27;;;;;;;7.45;40.22;98453.16;5075512;28;20439;-38
2022/03/14 10:51:58;;;;;;;11.23;7.40;;;;;;;7.36;40.16;98442.66;5084152;28;20450;-39
2022/03/14 10:54:27;;;;;;;11.57;7.47;;;;;;;7.37;39.72;98452.22;5095649;28;20446;-39
2022/03/14 10:57:06;;;;;;;13.07;7.87;;;;;;;7.21;38.42;98454.97;5095684;28;20449;-39
2022/03/14 10:59:37;;;;;;;15.00;6.40;;;;;;;7.23;39.48;98445.06;5095528;28;20446;-40
2022/03/14 11:02:06;;;;;;;9.87;6.40;;;;;;;7.35;39.74;98442.81;5095575;28;20929;-38
2022/03/14 11:04:44;;;;;;;25.67;11.00;;;;;;;7.51;39.97;98436.63;5095726;28;20439;-40
2022/03/14 11:07:11;;;;;;;60.53;24.77;;;;;;;7.65;40.25;98438.47;5095433;28;20800;-39
2022/03/14 11:09:45;;;;;;;126.47;43.97;;;;;;;7.72;40.02;98439.44;5095646;28;20853;-40
2022/03/14 11:12:15;;;;;;;31.20;16.07;;;;;;;7.92;41.22;98425.69;5095358;28;20431;-40
2022/03/14 11:14:42;;;;;;;22.57;14.83;;;;;;;8.16;41.03;98436.03;5095159;28;20443;-39
2022/03/14 11:17:15;;;;;;;35.00;21.93;;;;;;;8.34;40.23;98442.81;5094943;28;20439;-40
2022/03/14 11:19:43;;;;;;;15.90;9.10;;;;;;;8.65;39.89;98439.19;5095125;28;20427;-39
2022/03/14 11:22:12;;;;;;;11.07;5.93;;;;;;;8.88;38.95;98424.00;5095175;28;20445;-40
2022/03/14 11:24:46;;;;;;;7.30;6.50;;;;;;;9.22;39.69;98436.59;5095067;28;20457;-39
2022/03/14 11:27:20;;;;;;;9.67;6.50;;;;;;;9.34;38.08;98434.31;5095050;28;20447;-40
2022/03/14 11:29:48;;;;;;;23.23;12.77;;;;;;;9.21;38.36;98434.16;5095058;28;20934;-39
2022/03/14 11:32:17;;;;;;;16.13;9.20;;;;;;;9.39;37.24;98426.59;5094972;28;20530;-39
2022/03/14 11:34:48;;;;;;;15.70;8.67;;;;;;;9.53;37.10;98426.72;5094855;28;20795;-40